sensor_id;sensor_type;location;lat;lon;timestamp;pressure;altitude;pressure_sealevel;temperature;humidity
3206;BME280;1615;53.602;11.418;2023-02-08T00:00:41;103805.44;;;1.01;100.00
3206;BME280;1615;53.602;11.418;2023-02-08T00:03:06;103815.31;;;1.10;100.00
3206;BME280;1615;53.602;11.418;2023-02-08T00:05:32;103815.06;;;1.03;100.00
3206;BME280;1615;53.602;11.418;2023-02-08T00:07:57;103807.44;;;0.99;100.00
3206;BME280;1615;53.602;11.418;2023-02-08T00:10:23;103789.09;;;0.85;100.00
3206;BME280;1615;53.602;11.418;2023-02-08T00:12:48;103810.53;;;1.04;100.00
3206;BME280;1615;53.602;11.418;2023-02-08T00:15:16;103839.31;;;1.13;100.00
3206;BME280;1615;53.602;11.418;2023-02-08T00:17:42;103809.97;;;1.18;100.00
3206;BME280;1615;53.602;11.418;2023-02-08T00:20:07;103810.81;;;1.18;100.00
3206;BME280;1615;53.602;11.418;2023-02-08T00:22:33;103808.97;;;1.19;100.00
3206;BME280;1615;53.602;11.418;2023-02-08T00:24:58;103813.50;;;1.18;100.00
3206;BME280;1615;53.602;11.418;2023-02-08T00:27:23;103814.63;;;1.08;100.00
3206;BME280;1615;53.602;11.418;2023-02-08T00:29:49;103816.22;;;1.01;100.00
3206;BME280;1615;53.602;11.418;2023-02-08T00:32:14;103810.00;;;1.00;100.00
3206;BME280;1615;53.602;11.418;2023-02-08T00:34:39;103806.00;;;1.04;100.00
3206;BME280;1615;53.602;11.418;2023-02-08T00:37:05;103810.53;;;1.04;100.00
3206;BME280;1615;53.602;11.418;2023-02-08T00:39:31;103803.97;;;1.06;100.00
3206;BME280;1615;53.602;11.418;2023-02-08T00:41:56;103800.41;;;1.06;100.00
3206;BME280;1615;53.602;11.418;2023-02-08T00:44:21;103797.72;;;1.06;100.00
3206;BME280;1615;53.602;11.418;2023-02-08T00:46:47;103799.44;;;1.07;100.00
3206;BME280;1615;53.602;11.418;2023-02-08T00:49:12;103795.34;;;1.03;100.00
3206;BME280;1615;53.602;11.418;2023-02-08T00:51:37;103796.16;;;1.03;100.00
3206;BME280;1615;53.602;11.418;2023-02-08T00:54:03;103793.56;;;0.94;100.00
3206;BME280;1615;53.602;11.418;2023-02-08T00:56:28;103795.44;;;0.76;100.00
3206;BME280;1615;53.602;11.418;2023-02-08T00:58:53;103798.38;;;0.65;100.00
3206;BME280;1615;53.602;11.418;2023-02-08T01:01:19;103788.50;;;0.56;100.00
3206;BME280;1615;53.602;11.418;2023-02-08T01:03:44;103788.88;;;0.61;100.00
3206;BME280;1615;53.602;11.418;2023-02-08T01:06:14;103783.53;;;0.69;100.00
3206;BME280;1615;53.602;11.418;2023-02-08T01:08:40;103788.03;;;0.78;100.00
3206;BME280;1615;53.602;11.418;2023-02-08T01:11:12;103797.38;;;0.83;100.00
3206;BME280;1615;53.602;11.418;2023-02-08T01:13:38;103797.91;;;0.87;100.00
3206;BME280;1615;53.602;11.418;2023-02-08T01:16:15;103790.81;;;0.86;100.00
3206;BME280;1615;53.602;11.418;2023-02-08T01:18:43;103796.22;;;0.86;100.00
3206;BME280;1615;53.602;11.418;2023-02-08T01:21:11;103788.78;;;0.88;100.00
3206;BME280;1615;53.602;11.418;2023-02-08T01:23:36;103794.19;;;0.88;100.00
3206;BME280;1615;53.602;11.418;2023-02-08T01:26:02;103781.16;;;0.83;100.00
3206;BME280;1615;53.602;11.418;2023-02-08T01:28:28;103639.59;;;-0.17;100.00
3206;BME280;1615;53.602;11.418;2023-02-08T01:30:53;103774.00;;;0.57;100.00
3206;BME280;1615;53.602;11.418;2023-02-08T01:33:19;103735.28;;;0.31;100.00
3206;BME280;1615;53.602;11.418;2023-02-08T01:35:44;103775.22;;;0.45;100.00
3206;BME280;1615;53.602;11.418;2023-02-08T01:38:09;103774.22;;;0.46;100.00
3206;BME280;1615;53.602;11.418;2023-02-08T01:40:35;103768.53;;;0.49;100.00
3206;BME280;1615;53.602;11.418;2023-02-08T01:43:10;103769.53;;;0.48;100.00
3206;BME280;1615;53.602;11.418;2023-02-08T01:45:40;103770.75;;;0.36;100.00
3206;BME280;1615;53.602;11.418;2023-02-08T01:48:12;103765.69;;;0.33;100.00
3206;BME280;1615;53.602;11.418;2023-02-08T01:53:45;103767.03;;;0.37;100.00
3206;BME280;1615;53.602;11.418;2023-02-08T01:56:14;103764.53;;;0.35;100.00
3206;BME280;1615;53.602;11.418;2023-02-08T01:58:45;103754.72;;;0.52;100.00
3206;BME280;1615;53.602;11.418;2023-02-08T02:01:13;103749.94;;;0.46;100.00
3206;BME280;1615;53.602;11.418;2023-02-08T02:03:38;103279.31;;;-2.44;100.00
3206;BME280;1615;53.602;11.418;2023-02-08T02:06:10;103684.25;;;-0.15;100.00
3206;BME280;1615;53.602;11.418;2023-02-08T02:08:39;103757.88;;;0.30;100.00
3206;BME280;1615;53.602;11.418;2023-02-08T02:11:07;103729.09;;;0.21;100.00
3206;BME280;1615;53.602;11.418;2023-02-08T02:13:33;103765.75;;;0.41;100.00
3206;BME280;1615;53.602;11.418;2023-02-08T02:15:58;103747.19;;;0.38;100.00
3206;BME280;1615;53.602;11.418;2023-02-08T02:18:31;103757.22;;;0.45;100.00
3206;BME280;1615;53.602;11.418;2023-02-08T02:26:36;103836.09;;;0.30;100.00
3206;BME280;1615;53.602;11.418;2023-02-08T02:34:46;103696.66;;;-0.05;100.00
3206;BME280;1615;53.602;11.418;2023-02-08T02:42:46;103747.00;;;0.22;100.00
3206;BME280;1615;53.602;11.418;2023-02-08T02:45:39;103737.91;;;0.23;100.00
3206;BME280;1615;53.602;11.418;2023-02-08T02:48:13;103742.59;;;0.21;100.00
3206;BME280;1615;53.602;11.418;2023-02-08T02:54:02;103739.34;;;0.17;100.00
3206;BME280;1615;53.602;11.418;2023-02-08T02:56:23;103704.28;;;-0.17;100.00
3206;BME280;1615;53.602;11.418;2023-02-08T02:58:51;103761.00;;;0.08;100.00
3206;BME280;1615;53.602;11.418;2023-02-08T03:01:24;103582.63;;;-0.94;100.00
3206;BME280;1615;53.602;11.418;2023-02-08T03:03:54;103759.84;;;0.10;100.00
3206;BME280;1615;53.602;11.418;2023-02-08T03:09:06;103761.13;;;0.16;100.00
3206;BME280;1615;53.602;11.418;2023-02-08T03:11:36;103761.19;;;0.24;100.00
3206;BME280;1615;53.602;11.418;2023-02-08T03:14:22;103762.09;;;0.15;100.00
3206;BME280;1615;53.602;11.418;2023-02-08T03:16:59;103758.47;;;0.06;100.00
3206;BME280;1615;53.602;11.418;2023-02-08T03:19:35;103763.84;;;0.06;100.00
3206;BME280;1615;53.602;11.418;2023-02-08T03:22:41;103754.94;;;0.06;100.00
3206;BME280;1615;53.602;11.418;2023-02-08T03:25:20;103759.25;;;0.16;100.00
3206;BME280;1615;53.602;11.418;2023-02-08T03:30:33;103761.06;;;-0.02;100.00
3206;BME280;1615;53.602;11.418;2023-02-08T03:33:20;103755.16;;;-0.05;100.00
3206;BME280;1615;53.602;11.418;2023-02-08T03:35:52;103766.75;;;-0.05;100.00
3206;BME280;1615;53.602;11.418;2023-02-08T03:38:28;103769.03;;;0.00;100.00
3206;BME280;1615;53.602;11.418;2023-02-08T03:40:57;103763.31;;;0.03;100.00
3206;BME280;1615;53.602;11.418;2023-02-08T03:46:16;103765.75;;;-0.04;100.00
3206;BME280;1615;53.602;11.418;2023-02-08T03:48:48;103768.22;;;-0.10;100.00
3206;BME280;1615;53.602;11.418;2023-02-08T03:51:16;103768.81;;;-0.16;100.00
3206;BME280;1615;53.602;11.418;2023-02-08T03:53:43;103764.00;;;-0.22;100.00
3206;BME280;1615;53.602;11.418;2023-02-08T03:56:19;103786.97;;;-0.18;100.00
3206;BME280;1615;53.602;11.418;2023-02-08T03:59:00;103768.97;;;-0.17;100.00
3206;BME280;1615;53.602;11.418;2023-02-08T04:01:40;103776.19;;;-0.18;100.00
3206;BME280;1615;53.602;11.418;2023-02-08T04:04:08;103703.53;;;-0.64;100.00
3206;BME280;1615;53.602;11.418;2023-02-08T04:06:34;103754.56;;;-0.26;100.00
3206;BME280;1615;53.602;11.418;2023-02-08T04:08:59;103790.94;;;-0.13;100.00
3206;BME280;1615;53.602;11.418;2023-02-08T04:11:24;103812.34;;;-0.11;100.00
3206;BME280;1615;53.602;11.418;2023-02-08T04:13:50;103784.94;;;-0.07;100.00
3206;BME280;1615;53.602;11.418;2023-02-08T04:16:15;103779.00;;;-0.10;100.00
3206;BME280;1615;53.602;11.418;2023-02-08T04:18:40;103782.41;;;-0.08;100.00
3206;BME280;1615;53.602;11.418;2023-02-08T04:21:06;103767.72;;;-0.23;100.00
3206;BME280;1615;53.602;11.418;2023-02-08T04:23:31;103785.56;;;-0.13;100.00
3206;BME280;1615;53.602;11.418;2023-02-08T04:25:56;103779.00;;;-0.10;100.00
3206;BME280;1615;53.602;11.418;2023-02-08T04:28:22;103778.16;;;-0.11;100.00
3206;BME280;1615;53.602;11.418;2023-02-08T04:30:47;103772.50;;;-0.17;100.00
3206;BME280;1615;53.602;11.418;2023-02-08T04:33:12;103642.19;;;-1.06;100.00
3206;BME280;1615;53.602;11.418;2023-02-08T04:35:42;103766.03;;;-0.24;100.00
3206;BME280;1615;53.602;11.418;2023-02-08T04:38:07;103770.81;;;-0.18;100.00
3206;BME280;1615;53.602;11.418;2023-02-08T04:40:33;103765.72;;;-0.21;100.00
3206;BME280;1615;53.602;11.418;2023-02-08T04:42:58;103778.22;;;-0.20;100.00
3206;BME280;1615;53.602;11.418;2023-02-08T04:45:23;103648.25;;;-1.04;100.00
3206;BME280;1615;53.602;11.418;2023-02-08T04:47:51;103771.41;;;-0.24;100.00
3206;BME280;1615;53.602;11.418;2023-02-08T04:50:16;103774.78;;;-0.22;100.00
3206;BME280;1615;53.602;11.418;2023-02-08T04:52:42;103773.69;;;-0.29;100.00
3206;BME280;1615;53.602;11.418;2023-02-08T04:55:07;103781.09;;;-0.31;100.00
3206;BME280;1615;53.602;11.418;2023-02-08T04:57:32;103776.31;;;-0.37;100.00
3206;BME280;1615;53.602;11.418;2023-02-08T04:59:57;103768.91;;;-0.35;100.00
3206;BME280;1615;53.602;11.418;2023-02-08T05:02:23;103766.75;;;-0.32;100.00
3206;BME280;1615;53.602;11.418;2023-02-08T05:04:48;103759.69;;;-0.32;100.00
3206;BME280;1615;53.602;11.418;2023-02-08T05:07:13;103760.09;;;-0.28;100.00
3206;BME280;1615;53.602;11.418;2023-02-08T05:09:39;103755.09;;;-0.22;100.00
3206;BME280;1615;53.602;11.418;2023-02-08T05:12:04;103752.66;;;-0.16;100.00
3206;BME280;1615;53.602;11.418;2023-02-08T05:14:29;103757.03;;;-0.15;100.00
3206;BME280;1615;53.602;11.418;2023-02-08T05:16:55;103769.66;;;-0.16;100.00
3206;BME280;1615;53.602;11.418;2023-02-08T05:19:20;103764.28;;;-0.16;100.00
3206;BME280;1615;53.602;11.418;2023-02-08T05:21:45;103765.41;;;-0.18;100.00
3206;BME280;1615;53.602;11.418;2023-02-08T05:24:11;103745.94;;;-0.39;100.00
3206;BME280;1615;53.602;11.418;2023-02-08T05:26:37;103764.94;;;-0.31;100.00
3206;BME280;1615;53.602;11.418;2023-02-08T05:29:02;103737.44;;;-0.44;100.00
3206;BME280;1615;53.602;11.418;2023-02-08T05:31:27;103755.53;;;-0.27;100.00
3206;BME280;1615;53.602;11.418;2023-02-08T05:33:53;103755.84;;;-0.30;100.00
3206;BME280;1615;53.602;11.418;2023-02-08T05:36:19;103757.44;;;-0.37;100.00
3206;BME280;1615;53.602;11.418;2023-02-08T05:38:44;103766.22;;;-0.35;100.00
3206;BME280;1615;53.602;11.418;2023-02-08T05:41:10;103756.13;;;-0.33;100.00
3206;BME280;1615;53.602;11.418;2023-02-08T05:43:35;103711.22;;;-0.69;100.00
3206;BME280;1615;53.602;11.418;2023-02-08T05:46:01;103768.66;;;-0.42;100.00
3206;BME280;1615;53.602;11.418;2023-02-08T05:48:26;103587.94;;;-1.48;100.00
3206;BME280;1615;53.602;11.418;2023-02-08T05:50:52;103627.81;;;-1.34;100.00
3206;BME280;1615;53.602;11.418;2023-02-08T05:53:18;103775.50;;;-0.47;100.00
3206;BME280;1615;53.602;11.418;2023-02-08T05:55:44;103640.84;;;-1.29;100.00
3206;BME280;1615;53.602;11.418;2023-02-08T05:58:10;103780.00;;;-0.47;100.00
3206;BME280;1615;53.602;11.418;2023-02-08T06:00:36;103785.25;;;-0.46;100.00
3206;BME280;1615;53.602;11.418;2023-02-08T06:03:01;103785.94;;;-0.44;100.00
3206;BME280;1615;53.602;11.418;2023-02-08T06:05:26;103786.09;;;-0.36;100.00
3206;BME280;1615;53.602;11.418;2023-02-08T06:07:52;103632.63;;;-1.28;100.00
3206;BME280;1615;53.602;11.418;2023-02-08T06:10:17;103789.38;;;-0.52;100.00
3206;BME280;1615;53.602;11.418;2023-02-08T06:12:42;103802.31;;;-0.55;100.00
3206;BME280;1615;53.602;11.418;2023-02-08T06:15:08;103797.66;;;-0.63;100.00
3206;BME280;1615;53.602;11.418;2023-02-08T06:17:33;103818.22;;;-0.71;100.00
3206;BME280;1615;53.602;11.418;2023-02-08T06:19:59;103802.50;;;-0.75;100.00
3206;BME280;1615;53.602;11.418;2023-02-08T06:22:24;103806.19;;;-0.76;100.00
3206;BME280;1615;53.602;11.418;2023-02-08T06:24:49;103803.34;;;-0.75;100.00
3206;BME280;1615;53.602;11.418;2023-02-08T06:27:15;103805.47;;;-0.69;100.00
3206;BME280;1615;53.602;11.418;2023-02-08T06:29:40;103798.69;;;-0.73;100.00
3206;BME280;1615;53.602;11.418;2023-02-08T06:32:08;103789.19;;;-0.77;100.00
3206;BME280;1615;53.602;11.418;2023-02-08T06:34:33;103795.16;;;-0.83;100.00
3206;BME280;1615;53.602;11.418;2023-02-08T06:36:59;103805.06;;;-0.83;100.00
3206;BME280;1615;53.602;11.418;2023-02-08T06:39:26;103800.81;;;-0.86;100.00
3206;BME280;1615;53.602;11.418;2023-02-08T06:41:52;103805.22;;;-0.85;100.00
3206;BME280;1615;53.602;11.418;2023-02-08T06:44:17;103806.19;;;-0.86;100.00
3206;BME280;1615;53.602;11.418;2023-02-08T06:46:42;103809.34;;;-0.90;100.00
3206;BME280;1615;53.602;11.418;2023-02-08T06:49:08;103812.47;;;-0.95;100.00
3206;BME280;1615;53.602;11.418;2023-02-08T06:51:33;103815.84;;;-0.93;100.00
3206;BME280;1615;53.602;11.418;2023-02-08T06:53:58;103814.44;;;-0.87;100.00
3206;BME280;1615;53.602;11.418;2023-02-08T06:56:24;103733.47;;;-1.32;100.00
3206;BME280;1615;53.602;11.418;2023-02-08T06:58:49;103774.63;;;-1.03;100.00
3206;BME280;1615;53.602;11.418;2023-02-08T07:01:15;103806.94;;;-0.84;100.00
3206;BME280;1615;53.602;11.418;2023-02-08T07:03:41;103799.53;;;-0.82;100.00
3206;BME280;1615;53.602;11.418;2023-02-08T07:06:14;103798.81;;;-0.74;100.00
3206;BME280;1615;53.602;11.418;2023-02-08T07:08:40;103803.94;;;-0.71;100.00
3206;BME280;1615;53.602;11.418;2023-02-08T07:11:08;103779.28;;;-0.86;100.00
3206;BME280;1615;53.602;11.418;2023-02-08T07:13:35;103800.66;;;-0.65;100.00
3206;BME280;1615;53.602;11.418;2023-02-08T07:16:02;103801.19;;;-0.62;100.00
3206;BME280;1615;53.602;11.418;2023-02-08T07:18:28;103771.88;;;-0.74;100.00
3206;BME280;1615;53.602;11.418;2023-02-08T07:20:54;103781.19;;;-0.59;100.00
3206;BME280;1615;53.602;11.418;2023-02-08T07:23:19;103669.41;;;-1.19;100.00
3206;BME280;1615;53.602;11.418;2023-02-08T07:25:44;103755.09;;;-0.59;100.00
3206;BME280;1615;53.602;11.418;2023-02-08T07:28:10;103773.59;;;-0.37;100.00
3206;BME280;1615;53.602;11.418;2023-02-08T07:30:36;103757.88;;;-0.42;100.00
3206;BME280;1615;53.602;11.418;2023-02-08T07:33:01;103770.25;;;-0.22;100.00
3206;BME280;1615;53.602;11.418;2023-02-08T07:35:26;103766.81;;;-0.14;100.00
3206;BME280;1615;53.602;11.418;2023-02-08T07:37:52;103763.38;;;-0.07;100.00
3206;BME280;1615;53.602;11.418;2023-02-08T07:40:17;103765.06;;;-0.06;100.00
3206;BME280;1615;53.602;11.418;2023-02-08T07:42:42;103766.16;;;0.01;100.00
3206;BME280;1615;53.602;11.418;2023-02-08T07:45:08;103764.00;;;0.05;100.00
3206;BME280;1615;53.602;11.418;2023-02-08T07:47:33;103763.25;;;0.12;100.00
3206;BME280;1615;53.602;11.418;2023-02-08T07:49:58;103753.72;;;0.18;100.00
3206;BME280;1615;53.602;11.418;2023-02-08T07:52:24;103737.44;;;0.10;100.00
3206;BME280;1615;53.602;11.418;2023-02-08T07:54:49;103773.38;;;0.28;100.00
3206;BME280;1615;53.602;11.418;2023-02-08T07:57:14;103759.28;;;0.34;100.00
3206;BME280;1615;53.602;11.418;2023-02-08T07:59:45;103752.00;;;0.34;100.00
3206;BME280;1615;53.602;11.418;2023-02-08T08:02:13;103759.03;;;0.45;100.00
3206;BME280;1615;53.602;11.418;2023-02-08T08:04:38;103756.88;;;0.48;100.00
3206;BME280;1615;53.602;11.418;2023-02-08T08:07:03;103754.41;;;0.55;100.00
3206;BME280;1615;53.602;11.418;2023-02-08T08:09:29;103751.25;;;0.59;100.00
3206;BME280;1615;53.602;11.418;2023-02-08T08:11:54;103740.97;;;0.63;100.00
3206;BME280;1615;53.602;11.418;2023-02-08T08:14:19;103719.97;;;0.49;100.00
3206;BME280;1615;53.602;11.418;2023-02-08T08:16:45;103740.34;;;0.69;100.00
3206;BME280;1615;53.602;11.418;2023-02-08T08:19:10;103747.16;;;0.73;100.00
3206;BME280;1615;53.602;11.418;2023-02-08T08:21:35;103679.25;;;0.42;100.00
3206;BME280;1615;53.602;11.418;2023-02-08T08:24:01;103740.81;;;0.82;100.00
3206;BME280;1615;53.602;11.418;2023-02-08T08:26:26;103764.19;;;0.91;100.00
3206;BME280;1615;53.602;11.418;2023-02-08T08:28:52;103755.59;;;0.95;100.00
3206;BME280;1615;53.602;11.418;2023-02-08T08:31:19;103760.84;;;0.97;100.00
3206;BME280;1615;53.602;11.418;2023-02-08T08:33:45;103754.81;;;1.03;100.00
3206;BME280;1615;53.602;11.418;2023-02-08T08:36:11;103766.03;;;1.16;100.00
3206;BME280;1615;53.602;11.418;2023-02-08T08:38:36;103752.28;;;1.27;100.00
3206;BME280;1615;53.602;11.418;2023-02-08T08:41:15;103749.94;;;1.32;100.00
3206;BME280;1615;53.602;11.418;2023-02-08T08:43:46;103767.53;;;1.36;100.00
3206;BME280;1615;53.602;11.418;2023-02-08T08:46:11;103752.88;;;1.46;100.00
3206;BME280;1615;53.602;11.418;2023-02-08T08:48:37;103590.16;;;0.60;100.00
3206;BME280;1615;53.602;11.418;2023-02-08T08:51:03;103754.78;;;1.54;100.00
3206;BME280;1615;53.602;11.418;2023-02-08T08:53:28;103755.84;;;1.61;100.00
3206;BME280;1615;53.602;11.418;2023-02-08T08:55:54;103755.72;;;1.70;100.00
3206;BME280;1615;53.602;11.418;2023-02-08T08:58:19;103759.44;;;1.69;100.00
3206;BME280;1615;53.602;11.418;2023-02-08T09:00:45;103759.31;;;1.79;100.00
3206;BME280;1615;53.602;11.418;2023-02-08T09:03:10;103762.75;;;1.89;100.00
3206;BME280;1615;53.602;11.418;2023-02-08T09:05:35;103722.41;;;1.70;100.00
3206;BME280;1615;53.602;11.418;2023-02-08T09:08:01;103762.44;;;2.00;100.00
3206;BME280;1615;53.602;11.418;2023-02-08T09:10:28;103755.00;;;2.02;100.00
3206;BME280;1615;53.602;11.418;2023-02-08T09:12:53;103754.38;;;2.08;100.00
3206;BME280;1615;53.602;11.418;2023-02-08T09:15:18;103749.97;;;2.15;100.00
3206;BME280;1615;53.602;11.418;2023-02-08T09:17:44;103727.63;;;2.13;100.00
3206;BME280;1615;53.602;11.418;2023-02-08T09:20:09;103750.00;;;2.31;100.00
3206;BME280;1615;53.602;11.418;2023-02-08T09:22:35;103756.25;;;2.31;100.00
3206;BME280;1615;53.602;11.418;2023-02-08T09:25:00;103756.09;;;2.33;100.00
3206;BME280;1615;53.602;11.418;2023-02-08T09:27:26;103749.19;;;2.46;100.00
3206;BME280;1615;53.602;11.418;2023-02-08T09:29:51;103744.28;;;2.50;100.00
3206;BME280;1615;53.602;11.418;2023-02-08T09:32:17;103745.63;;;2.54;100.00
3206;BME280;1615;53.602;11.418;2023-02-08T09:34:42;103745.81;;;2.60;100.00
3206;BME280;1615;53.602;11.418;2023-02-08T09:37:07;103747.34;;;2.63;100.00
3206;BME280;1615;53.602;11.418;2023-02-08T09:39:33;103738.22;;;2.72;100.00
3206;BME280;1615;53.602;11.418;2023-02-08T09:44:31;103747.50;;;2.77;100.00
3206;BME280;1615;53.602;11.418;2023-02-08T09:47:23;103740.22;;;2.86;100.00
3206;BME280;1615;53.602;11.418;2023-02-08T09:50:12;103734.13;;;2.92;100.00
3206;BME280;1615;53.602;11.418;2023-02-08T09:52:46;103734.13;;;3.00;100.00
3206;BME280;1615;53.602;11.418;2023-02-08T09:55:45;103731.41;;;3.08;100.00
3206;BME280;1615;53.602;11.418;2023-02-08T10:01:01;103732.91;;;3.10;100.00
3206;BME280;1615;53.602;11.418;2023-02-08T10:03:35;103732.59;;;3.13;100.00
3206;BME280;1615;53.602;11.418;2023-02-08T10:06:03;103734.09;;;3.16;100.00
3206;BME280;1615;53.602;11.418;2023-02-08T10:08:29;103737.16;;;3.21;100.00
3206;BME280;1615;53.602;11.418;2023-02-08T10:16:20;103724.06;;;3.40;100.00
3206;BME280;1615;53.602;11.418;2023-02-08T10:19:34;103734.00;;;3.56;100.00
3206;BME280;1615;53.602;11.418;2023-02-08T10:25:01;103737.34;;;3.74;100.00
3206;BME280;1615;53.602;11.418;2023-02-08T10:30:37;103723.75;;;3.74;100.00
3206;BME280;1615;53.602;11.418;2023-02-08T10:33:17;103727.44;;;3.81;100.00
3206;BME280;1615;53.602;11.418;2023-02-08T10:35:47;103722.19;;;3.87;100.00
3206;BME280;1615;53.602;11.418;2023-02-08T10:38:26;103713.97;;;3.95;100.00
3206;BME280;1615;53.602;11.418;2023-02-08T10:40:58;103748.78;;;3.92;100.00
3206;BME280;1615;53.602;11.418;2023-02-08T10:43:39;103723.63;;;3.98;100.00
3206;BME280;1615;53.602;11.418;2023-02-08T10:49:12;103712.03;;;4.12;100.00
3206;BME280;1615;53.602;11.418;2023-02-08T10:51:38;103715.34;;;4.22;100.00
3206;BME280;1615;53.602;11.418;2023-02-08T10:54:04;103689.44;;;4.11;100.00
3206;BME280;1615;53.602;11.418;2023-02-08T10:58:56;103716.25;;;4.37;100.00
3206;BME280;1615;53.602;11.418;2023-02-08T11:01:24;103715.91;;;4.40;100.00
3206;BME280;1615;53.602;11.418;2023-02-08T11:04:05;103715.56;;;4.43;100.00
3206;BME280;1615;53.602;11.418;2023-02-08T11:06:31;103722.00;;;4.42;100.00
3206;BME280;1615;53.602;11.418;2023-02-08T11:08:57;103708.09;;;4.37;100.00
3206;BME280;1615;53.602;11.418;2023-02-08T11:11:24;103705.81;;;4.26;100.00
3206;BME280;1615;53.602;11.418;2023-02-08T11:13:51;103710.53;;;4.32;100.00
3206;BME280;1615;53.602;11.418;2023-02-08T11:16:26;103712.63;;;4.44;100.00
3206;BME280;1615;53.602;11.418;2023-02-08T11:18:54;103704.75;;;4.57;100.00
3206;BME280;1615;53.602;11.418;2023-02-08T11:21:29;103692.56;;;4.68;100.00
3206;BME280;1615;53.602;11.418;2023-02-08T11:26:39;103692.75;;;4.66;100.00
3206;BME280;1615;53.602;11.418;2023-02-08T11:29:20;103683.22;;;4.70;100.00
3206;BME280;1615;53.602;11.418;2023-02-08T11:32:17;103677.78;;;4.70;100.00
3206;BME280;1615;53.602;11.418;2023-02-08T11:34:42;103687.09;;;4.76;100.00
3206;BME280;1615;53.602;11.418;2023-02-08T11:37:22;103685.50;;;4.81;100.00
3206;BME280;1615;53.602;11.418;2023-02-08T11:39:54;103687.19;;;4.82;100.00
3206;BME280;1615;53.602;11.418;2023-02-08T11:42:31;103692.25;;;4.85;100.00
3206;BME280;1615;53.602;11.418;2023-02-08T11:44:59;103688.63;;;4.93;100.00
3206;BME280;1615;53.602;11.418;2023-02-08T11:47:29;103648.00;;;4.77;100.00
3206;BME280;1615;53.602;11.418;2023-02-08T11:49:58;103686.94;;;4.92;100.00
3206;BME280;1615;53.602;11.418;2023-02-08T11:52:30;103681.78;;;4.97;100.00
3206;BME280;1615;53.602;11.418;2023-02-08T12:00:36;103683.28;;;4.99;100.00
3206;BME280;1615;53.602;11.418;2023-02-08T12:05:42;103679.69;;;4.84;100.00
3206;BME280;1615;53.602;11.418;2023-02-08T12:08:33;103664.81;;;4.95;100.00
3206;BME280;1615;53.602;11.418;2023-02-08T12:11:14;103666.22;;;4.91;100.00
3206;BME280;1615;53.602;11.418;2023-02-08T12:13:56;103664.16;;;4.93;100.00
3206;BME280;1615;53.602;11.418;2023-02-08T12:22:23;103663.22;;;5.00;100.00
3206;BME280;1615;53.602;11.418;2023-02-08T12:27:58;103671.03;;;5.18;100.00
3206;BME280;1615;53.602;11.418;2023-02-08T12:30:31;103650.56;;;5.22;100.00
3206;BME280;1615;53.602;11.418;2023-02-08T12:41:22;103637.34;;;5.33;100.00
3206;BME280;1615;53.602;11.418;2023-02-08T12:49:35;103626.84;;;5.45;100.00
3206;BME280;1615;53.602;11.418;2023-02-08T12:52:22;103627.38;;;5.40;100.00
3206;BME280;1615;53.602;11.418;2023-02-08T12:54:57;103624.56;;;5.48;100.00
3206;BME280;1615;53.602;11.418;2023-02-08T12:57:26;103623.72;;;5.48;100.00
3206;BME280;1615;53.602;11.418;2023-02-08T13:02:47;103617.00;;;5.44;100.00
3206;BME280;1615;53.602;11.418;2023-02-08T13:05:23;103614.91;;;5.46;100.00
3206;BME280;1615;53.602;11.418;2023-02-08T13:07:56;103608.72;;;5.52;100.00
3206;BME280;1615;53.602;11.418;2023-02-08T13:10:29;103433.72;;;4.45;100.00
3206;BME280;1615;53.602;11.418;2023-02-08T13:13:15;103602.91;;;5.55;100.00
3206;BME280;1615;53.602;11.418;2023-02-08T13:15:45;103602.50;;;5.58;100.00
3206;BME280;1615;53.602;11.418;2023-02-08T13:18:17;103580.19;;;5.48;100.00
3206;BME280;1615;53.602;11.418;2023-02-08T13:20:52;103591.63;;;5.58;100.00
3206;BME280;1615;53.602;11.418;2023-02-08T13:23:23;103505.91;;;5.12;100.00
3206;BME280;1615;53.602;11.418;2023-02-08T13:25:54;103561.81;;;5.50;100.00
3206;BME280;1615;53.602;11.418;2023-02-08T13:28:22;103577.50;;;5.69;100.00
3206;BME280;1615;53.602;11.418;2023-02-08T13:30:54;103574.16;;;5.67;100.00
3206;BME280;1615;53.602;11.418;2023-02-08T13:33:33;103574.59;;;5.70;100.00
3206;BME280;1615;53.602;11.418;2023-02-08T13:36:00;103546.03;;;5.60;100.00
3206;BME280;1615;53.602;11.418;2023-02-08T13:41:14;103569.25;;;5.77;100.00
3206;BME280;1615;53.602;11.418;2023-02-08T13:43:47;103556.28;;;5.79;100.00
3206;BME280;1615;53.602;11.418;2023-02-08T13:46:16;103526.19;;;5.45;100.00
3206;BME280;1615;53.602;11.418;2023-02-08T13:48:56;103551.47;;;5.60;100.00
3206;BME280;1615;53.602;11.418;2023-02-08T13:56:45;103539.50;;;5.40;100.00
3206;BME280;1615;53.602;11.418;2023-02-08T14:04:40;103517.75;;;5.04;100.00
3206;BME280;1615;53.602;11.418;2023-02-08T14:07:27;103537.56;;;5.34;100.00
3206;BME280;1615;53.602;11.418;2023-02-08T14:10:22;103533.53;;;5.30;100.00
3206;BME280;1615;53.602;11.418;2023-02-08T14:13:00;103554.84;;;5.26;100.00
3206;BME280;1615;53.602;11.418;2023-02-08T14:15:30;103530.63;;;5.31;100.00
3206;BME280;1615;53.602;11.418;2023-02-08T14:17:58;103527.31;;;5.36;100.00
3206;BME280;1615;53.602;11.418;2023-02-08T14:20:35;103523.38;;;5.38;100.00
3206;BME280;1615;53.602;11.418;2023-02-08T14:23:20;103525.66;;;5.35;100.00
3206;BME280;1615;53.602;11.418;2023-02-08T14:25:48;103518.88;;;5.31;100.00
3206;BME280;1615;53.602;11.418;2023-02-08T14:28:44;103520.19;;;5.35;100.00
3206;BME280;1615;53.602;11.418;2023-02-08T14:31:11;103397.09;;;4.55;100.00
3206;BME280;1615;53.602;11.418;2023-02-08T14:33:45;103525.56;;;5.28;100.00
3206;BME280;1615;53.602;11.418;2023-02-08T14:36:30;103521.47;;;5.18;100.00
3206;BME280;1615;53.602;11.418;2023-02-08T14:39:22;103521.19;;;5.13;100.00
3206;BME280;1615;53.602;11.418;2023-02-08T14:41:51;103512.22;;;4.98;100.00
3206;BME280;1615;53.602;11.418;2023-02-08T14:47:36;103507.81;;;4.97;100.00
3206;BME280;1615;53.602;11.418;2023-02-08T14:50:12;103486.63;;;4.78;100.00
3206;BME280;1615;53.602;11.418;2023-02-08T14:52:53;103498.53;;;4.77;100.00
3206;BME280;1615;53.602;11.418;2023-02-08T14:55:26;103491.50;;;4.82;100.00